createdAt,value
2023-03-30T00:09:16.834Z,9.90
2023-03-30T00:14:10.206Z,9.90
2023-03-30T00:19:03.632Z,10.00
2023-03-30T00:23:57.019Z,9.90
2023-03-30T00:28:51.925Z,10.00
2023-03-30T00:33:47.514Z,10.00
2023-03-30T00:38:41.401Z,10.00
2023-03-30T00:43:34.878Z,10.00
2023-03-30T00:48:36.386Z,9.90
2023-03-30T00:53:34.747Z,9.90
2023-03-30T00:58:31.282Z,9.80
2023-03-30T01:03:32.638Z,9.80
2023-03-30T01:08:32.571Z,9.80
2023-03-30T01:13:26.058Z,9.80
2023-03-30T01:18:44.866Z,9.80
2023-03-30T01:24:42.713Z,9.80
2023-03-30T01:30:04.103Z,9.80
2023-03-30T01:35:29.573Z,9.70
2023-03-30T01:40:33.432Z,9.70
2023-03-30T01:45:43.753Z,9.50
2023-03-30T01:50:42.524Z,9.40
2023-03-30T01:55:42.940Z,9.40
2023-03-30T02:00:41.007Z,9.40
2023-03-30T02:05:37.122Z,9.50
2023-03-30T02:10:34.773Z,9.40
2023-03-30T02:15:38.465Z,9.40
2023-03-30T02:20:33.173Z,9.40
2023-03-30T02:25:27.959Z,9.40
2023-03-30T02:30:21.507Z,9.40
2023-03-30T02:35:52.247Z,9.40
2023-03-30T02:41:00.936Z,9.40
2023-03-30T02:46:11.424Z,9.50
2023-03-30T02:51:25.200Z,9.40
2023-03-30T02:56:29.926Z,9.40
2023-03-30T03:01:33.654Z,9.50
2023-03-30T03:06:29.316Z,9.50
2023-03-30T03:11:23.036Z,9.50
2023-03-30T03:16:16.807Z,9.50
2023-03-30T03:21:11.555Z,9.50
2023-03-30T03:26:07.558Z,9.50
2023-03-30T03:31:02.525Z,9.60
2023-03-30T03:36:00.076Z,9.60
2023-03-30T03:46:02.509Z,9.60
2023-03-30T03:56:02.191Z,9.80
2023-03-30T04:11:13.183Z,9.70
2023-03-30T04:21:13.149Z,9.70
2023-03-30T04:26:10.078Z,9.60
2023-03-30T04:31:05.969Z,9.60
2023-03-30T04:35:59.673Z,9.60
2023-03-30T04:40:54.131Z,9.60
2023-03-30T04:45:52.084Z,9.50
2023-03-30T04:50:48.118Z,9.40
2023-03-30T04:55:41.469Z,9.40
2023-03-30T05:00:34.990Z,9.30
2023-03-30T05:05:29.783Z,9.30
2023-03-30T05:10:23.211Z,9.20
2023-03-30T05:15:17.448Z,9.10
2023-03-30T05:20:11.856Z,9.00
2023-03-30T05:25:08.129Z,9.00
2023-03-30T05:30:01.484Z,9.00
2023-03-30T05:34:54.896Z,9.00
2023-03-30T05:39:49.312Z,9.00
2023-03-30T05:44:44.104Z,9.00
2023-03-30T05:49:37.653Z,9.10
2023-03-30T05:54:31.057Z,9.00
2023-03-30T05:59:24.633Z,8.80
2023-03-30T06:04:19.676Z,8.80
2023-03-30T06:09:13.210Z,8.80
2023-03-30T06:14:06.596Z,8.80
2023-03-30T06:19:00.197Z,9.00
2023-03-30T06:23:55.026Z,9.00
2023-03-30T06:28:48.481Z,9.20
2023-03-30T06:33:42.220Z,9.30
2023-03-30T06:38:35.762Z,9.30
2023-03-30T06:43:30.546Z,9.40
2023-03-30T06:48:25.490Z,9.40
2023-03-30T06:53:19.115Z,9.50
2023-03-30T06:58:12.606Z,9.60
2023-03-30T07:03:07.862Z,9.70
2023-03-30T07:08:01.656Z,9.80
2023-03-30T07:12:55.403Z,9.80
2023-03-30T07:17:48.743Z,9.80
2023-03-30T07:22:44.040Z,9.90
2023-03-30T07:27:38.096Z,9.90
2023-03-30T07:32:31.806Z,10.00
2023-03-30T07:37:26.055Z,10.00
2023-03-30T07:42:20.800Z,10.10
2023-03-30T07:47:14.209Z,10.20
2023-03-30T07:52:08.246Z,10.30
2023-03-30T07:57:01.823Z,10.60
2023-03-30T08:01:57.336Z,10.90
2023-03-30T08:06:52.855Z,11.10
2023-03-30T08:11:46.552Z,11.10
2023-03-30T08:16:40.156Z,11.10
2023-03-30T08:21:34.988Z,11.20
2023-03-30T08:26:30.933Z,11.30
2023-03-30T08:31:24.376Z,11.40
2023-03-30T08:36:20.045Z,11.40
2023-03-30T08:42:00.042Z,11.60
2023-03-30T08:46:54.477Z,11.70
2023-03-30T08:51:51.955Z,11.90
2023-03-30T08:57:02.590Z,12.10
2023-03-30T09:02:02.777Z,12.20
2023-03-30T09:07:02.792Z,12.20
2023-03-30T09:12:05.901Z,12.30
2023-03-30T09:17:08.685Z,12.50
2023-03-30T09:22:07.057Z,12.60
2023-03-30T09:27:09.423Z,13.00
2023-03-30T09:32:12.109Z,13.10
2023-03-30T09:37:11.203Z,13.10
2023-03-30T09:42:26.879Z,13.00
2023-03-30T09:47:27.400Z,13.00
2023-03-30T09:52:25.163Z,12.90
2023-03-30T09:57:31.524Z,13.00
2023-03-30T10:02:27.966Z,13.20
2023-03-30T10:07:25.193Z,13.20
2023-03-30T10:12:19.058Z,13.30
2023-03-30T10:17:22.464Z,13.20
2023-03-30T10:22:18.955Z,12.80
2023-03-30T10:27:15.729Z,12.20
2023-03-30T10:32:17.131Z,11.60
2023-03-30T10:37:17.632Z,11.20
2023-03-30T10:42:17.382Z,10.90
2023-03-30T10:47:31.775Z,10.80
2023-03-30T10:52:45.901Z,10.70
2023-03-30T10:58:00.314Z,10.80
2023-03-30T11:03:05.950Z,10.80
2023-03-30T11:08:05.385Z,11.10
2023-03-30T11:13:04.173Z,11.30
2023-03-30T11:18:06.984Z,11.40
2023-03-30T11:23:15.908Z,11.50
2023-03-30T11:28:22.128Z,11.50
2023-03-30T11:33:28.400Z,11.50
2023-03-30T11:38:31.228Z,11.40
2023-03-30T11:43:31.905Z,11.50
2023-03-30T11:49:07.574Z,11.60
2023-03-30T11:54:24.797Z,11.70
2023-03-30T11:59:32.867Z,11.60
2023-03-30T12:04:38.628Z,11.60
2023-03-30T12:09:39.754Z,11.60
2023-03-30T12:14:46.014Z,11.70
2023-03-30T12:19:56.154Z,11.80
2023-03-30T12:24:59.825Z,11.80
2023-03-30T12:34:52.321Z,11.60
2023-03-30T12:39:50.141Z,11.50
2023-03-30T12:45:02.778Z,11.30
2023-03-30T12:50:21.222Z,11.10
2023-03-30T12:55:28.419Z,11.00
2023-03-30T13:01:04.582Z,11.30
2023-03-30T13:06:01.874Z,11.40
2023-03-30T13:11:14.935Z,11.30
2023-03-30T13:16:13.985Z,11.10
2023-03-30T13:21:09.959Z,11.10
2023-03-30T13:26:34.476Z,11.00
2023-03-30T13:32:05.019Z,10.90
2023-03-30T13:37:13.044Z,11.00
2023-03-30T13:42:34.329Z,11.10
2023-03-30T13:47:50.065Z,11.30
2023-03-30T13:52:50.579Z,11.70
2023-03-30T13:57:45.348Z,11.80
2023-03-30T14:02:42.277Z,11.70
2023-03-30T14:07:47.463Z,11.70
2023-03-30T14:12:42.853Z,12.00
2023-03-30T14:17:36.334Z,12.30
2023-03-30T14:22:33.584Z,12.50
2023-03-30T14:27:28.849Z,12.50
2023-03-30T14:32:23.543Z,12.60
2023-03-30T14:37:19.712Z,12.90
2023-03-30T14:42:20.454Z,13.00
2023-03-30T14:47:15.106Z,13.10
2023-03-30T14:52:16.594Z,13.20
2023-03-30T14:57:13.186Z,13.30
2023-03-30T15:02:20.453Z,13.30
2023-03-30T15:12:30.900Z,13.10
2023-03-30T15:17:28.480Z,13.10
2023-03-30T15:22:29.538Z,13.00
2023-03-30T15:27:24.491Z,12.90
2023-03-30T15:32:21.563Z,12.90
2023-03-30T15:37:24.416Z,12.90
2023-03-30T15:42:29.153Z,12.90
2023-03-30T15:47:22.696Z,13.00
2023-03-30T15:52:25.607Z,13.20
2023-03-30T15:57:25.015Z,13.20
2023-03-30T16:02:21.789Z,13.30
2023-03-30T16:07:19.150Z,13.30
2023-03-30T16:12:18.244Z,13.50
2023-03-30T16:17:13.349Z,13.60
2023-03-30T16:22:06.860Z,13.70
2023-03-30T16:27:03.241Z,13.60
2023-03-30T16:31:58.580Z,13.50
2023-03-30T16:36:52.936Z,13.50
2023-03-30T16:41:47.191Z,13.40
2023-03-30T16:46:42.454Z,13.30
2023-03-30T16:51:37.555Z,13.20
2023-03-30T16:56:31.167Z,13.10
2023-03-30T17:01:25.078Z,12.90
2023-03-30T17:06:18.323Z,12.80
2023-03-30T17:11:13.568Z,12.60
2023-03-30T17:16:07.951Z,12.50
2023-03-30T17:26:23.664Z,12.50
2023-03-30T17:31:20.577Z,12.50
2023-03-30T17:36:19.761Z,12.50
2023-03-30T17:41:17.095Z,12.40
2023-03-30T17:46:13.092Z,12.40
2023-03-30T17:51:07.134Z,12.40
2023-03-30T17:56:00.862Z,12.30
2023-03-30T18:00:56.157Z,12.20
2023-03-30T18:05:58.459Z,12.10
2023-03-30T18:10:54.016Z,11.90
2023-03-30T18:15:50.367Z,11.70
2023-03-30T18:20:45.353Z,11.50
2023-03-30T18:25:38.978Z,11.40
2023-03-30T18:30:34.749Z,11.40
2023-03-30T18:35:31.524Z,11.30
2023-03-30T18:40:32.544Z,11.20
2023-03-30T18:45:28.856Z,11.10
2023-03-30T18:50:39.390Z,11.00
2023-03-30T18:55:37.518Z,11.00
2023-03-30T19:00:34.463Z,10.90
2023-03-30T19:05:30.207Z,10.90
2023-03-30T19:10:27.513Z,10.80
2023-03-30T19:15:25.998Z,10.60
2023-03-30T19:20:21.320Z,10.50
2023-03-30T19:25:17.139Z,10.40
2023-03-30T19:30:12.735Z,10.30
2023-03-30T19:35:09.963Z,10.30
2023-03-30T19:40:03.760Z,10.30
2023-03-30T19:44:57.074Z,10.30
2023-03-30T19:49:50.403Z,10.30
2023-03-30T19:54:45.129Z,10.30
2023-03-30T19:59:38.406Z,10.30
2023-03-30T20:04:31.888Z,10.20
2023-03-30T20:09:25.597Z,10.20
2023-03-30T20:14:20.464Z,10.20
2023-03-30T20:19:26.844Z,10.20
2023-03-30T20:24:22.836Z,10.10
2023-03-30T20:29:16.381Z,10.10
2023-03-30T20:34:12.956Z,10.10
2023-03-30T20:39:08.086Z,10.00
2023-03-30T20:44:03.302Z,9.90
2023-03-30T20:49:02.149Z,9.70
2023-03-30T20:53:56.901Z,9.50
2023-03-30T20:58:50.400Z,9.50
2023-03-30T21:03:45.373Z,9.50
2023-03-30T21:08:38.902Z,9.50
2023-03-30T21:13:33.918Z,9.60
2023-03-30T21:18:28.159Z,9.70
2023-03-30T21:23:22.256Z,9.70
2023-03-30T21:28:15.651Z,9.80
2023-03-30T21:33:10.659Z,9.80
2023-03-30T21:38:04.261Z,9.80
2023-03-30T21:42:57.706Z,9.70
2023-03-30T21:47:51.094Z,9.70
2023-03-30T21:52:45.799Z,9.70
2023-03-30T21:57:39.066Z,9.60
2023-03-30T22:02:32.494Z,9.50
2023-03-30T22:07:25.944Z,9.60
2023-03-30T22:12:21.544Z,9.60
2023-03-30T22:17:14.849Z,9.40
2023-03-30T22:22:08.190Z,9.30
2023-03-30T22:27:01.505Z,9.40
2023-03-30T22:31:56.838Z,9.50
2023-03-30T22:36:50.289Z,9.50
2023-03-30T22:41:43.632Z,9.50
2023-03-30T22:46:36.954Z,9.40
2023-03-30T22:51:34.110Z,9.20
2023-03-30T22:56:29.692Z,9.20
2023-03-30T23:01:23.236Z,9.20
2023-03-30T23:06:19.097Z,9.20
2023-03-30T23:11:14.119Z,9.20
2023-03-30T23:16:08.237Z,9.10
2023-03-30T23:21:06.340Z,9.20
2023-03-30T23:26:02.873Z,9.00
2023-03-30T23:30:58.783Z,9.10
2023-03-30T23:35:53.269Z,9.20
2023-03-30T23:40:46.971Z,9.30
2023-03-30T23:45:40.854Z,9.40
2023-03-30T23:50:37.062Z,9.20
2023-03-30T23:55:30.447Z,9.10
